createdAt,value
2018-04-08T00:00:14.613Z,92.70
2018-04-08T00:03:15.877Z,92.70
2018-04-08T00:06:17.167Z,91.50
2018-04-08T00:09:18.430Z,92.50
2018-04-08T00:12:20.439Z,93.00
2018-04-08T00:15:21.707Z,93.00
2018-04-08T00:18:23.018Z,93.30
2018-04-08T00:21:24.280Z,92.90
2018-04-08T00:24:25.614Z,92.90
2018-04-08T00:27:26.911Z,92.90
2018-04-08T00:30:28.209Z,93.00
2018-04-08T00:33:30.194Z,92.70
2018-04-08T00:36:32.211Z,93.20
2018-04-08T00:39:33.472Z,93.10
2018-04-08T00:42:35.558Z,92.40
2018-04-08T00:45:37.622Z,93.40
2018-04-08T00:48:38.925Z,93.20
2018-04-08T00:51:40.207Z,93.50
2018-04-08T00:54:41.519Z,92.90
2018-04-08T00:57:42.804Z,93.30
2018-04-08T01:00:44.083Z,93.30
2018-04-08T01:03:45.394Z,93.10
2018-04-08T01:06:47.466Z,93.30
2018-04-08T01:09:49.462Z,93.40
2018-04-08T01:12:50.698Z,93.40
2018-04-08T01:15:51.980Z,93.40
2018-04-08T01:18:53.978Z,93.90
2018-04-08T01:21:55.970Z,93.80
2018-04-08T01:24:57.934Z,93.80
2018-04-08T01:27:59.206Z,94.10
2018-04-08T01:31:00.502Z,93.70
2018-04-08T01:34:01.766Z,93.70
2018-04-08T01:37:03.055Z,93.70
2018-04-08T01:40:04.331Z,94.10
2018-04-08T01:43:05.594Z,93.90
2018-04-08T01:46:06.840Z,93.60
2018-04-08T01:49:08.155Z,93.90
2018-04-08T01:52:10.150Z,94.40
2018-04-08T01:55:11.431Z,94.40
2018-04-08T01:58:12.722Z,94.00
2018-04-08T02:01:14.002Z,94.20
2018-04-08T02:04:15.272Z,94.10
2018-04-08T02:07:16.534Z,94.30
2018-04-08T02:10:17.855Z,94.40
2018-04-08T02:13:19.111Z,94.70
2018-04-08T02:16:20.336Z,94.00
2018-04-08T02:19:22.385Z,93.90
2018-04-08T02:22:23.656Z,93.90
2018-04-08T02:25:24.907Z,94.50
2018-04-08T02:28:27.213Z,94.10
2018-04-08T02:31:28.493Z,94.10
2018-04-08T02:34:29.725Z,94.50
2018-04-08T02:37:30.970Z,94.40
2018-04-08T02:40:32.219Z,94.50
2018-04-08T02:43:33.487Z,94.70
2018-04-08T02:46:34.732Z,94.70
2018-04-08T02:49:36.003Z,94.80
2018-04-08T02:52:37.257Z,93.10
2018-04-08T02:55:38.513Z,91.90
2018-04-08T02:58:39.752Z,93.30
2018-04-08T03:01:41.024Z,93.70
2018-04-08T03:04:42.288Z,94.00
2018-04-08T03:07:43.562Z,94.10
2018-04-08T03:10:44.843Z,93.50
2018-04-08T03:13:46.088Z,94.10
2018-04-08T03:16:47.354Z,94.60
2018-04-08T03:19:48.666Z,93.50
2018-04-08T03:22:49.996Z,93.70
2018-04-08T03:25:52.018Z,94.00
2018-04-08T03:28:53.270Z,94.00
2018-04-08T03:31:55.290Z,92.60
2018-04-08T03:34:56.603Z,92.50
2018-04-08T03:37:57.922Z,93.20
2018-04-08T03:40:59.146Z,93.60
2018-04-08T03:44:00.429Z,91.20
2018-04-08T03:47:01.694Z,92.80
2018-04-08T03:50:02.992Z,93.00
2018-04-08T03:53:04.266Z,91.50
2018-04-08T03:56:05.543Z,93.20
2018-04-08T03:59:06.805Z,93.30
2018-04-08T04:02:08.120Z,91.40
2018-04-08T04:05:09.379Z,93.00
2018-04-08T04:08:10.623Z,93.40
2018-04-08T04:11:12.601Z,93.70
2018-04-08T04:14:13.886Z,93.70
2018-04-08T04:17:15.888Z,92.50
2018-04-08T04:20:36.323Z,93.70
2018-04-08T04:23:56.176Z,93.70
2018-04-08T04:26:57.471Z,93.30
2018-04-08T04:29:58.722Z,93.80
2018-04-08T04:33:00.010Z,94.10
2018-04-08T04:36:01.244Z,94.30
2018-04-08T04:39:03.297Z,94.70
2018-04-08T04:42:04.577Z,94.60
2018-04-08T04:45:05.833Z,94.50
2018-04-08T04:48:07.096Z,92.50
2018-04-08T04:51:08.426Z,92.60
2018-04-08T04:54:09.675Z,94.60
2018-04-08T04:57:10.946Z,92.20
2018-04-08T05:00:12.263Z,93.30
2018-04-08T05:03:13.569Z,94.50
2018-04-08T05:06:15.628Z,92.90
2018-04-08T05:09:16.892Z,92.80
2018-04-08T05:12:18.905Z,93.40
2018-04-08T05:15:21.556Z,93.40
2018-04-08T05:18:23.547Z,93.70
2018-04-08T05:21:25.612Z,92.20
2018-04-08T05:24:27.233Z,92.20
2018-04-08T05:27:29.239Z,93.50
2018-04-08T05:30:31.239Z,94.30
2018-04-08T05:33:33.242Z,93.60
2018-04-08T05:36:34.506Z,93.60
2018-04-08T05:39:36.556Z,93.30
2018-04-08T05:42:37.841Z,93.30
2018-04-08T05:45:39.133Z,93.40
2018-04-08T05:48:40.400Z,93.00
2018-04-08T05:51:41.677Z,91.70
2018-04-08T05:54:42.915Z,92.60
2018-04-08T05:57:44.215Z,93.70
2018-04-08T06:00:45.488Z,92.40
2018-04-08T06:03:46.772Z,92.00
2018-04-08T06:06:48.081Z,94.20
2018-04-08T06:09:49.342Z,93.60
2018-04-08T06:12:50.626Z,94.40
2018-04-08T06:15:51.905Z,93.60
2018-04-08T06:18:53.180Z,95.20
2018-04-08T06:21:54.463Z,95.40
2018-04-08T06:24:55.779Z,95.80
2018-04-08T06:27:57.809Z,96.00
2018-04-08T06:30:59.097Z,96.10
2018-04-08T06:34:00.345Z,96.50
2018-04-08T06:37:02.361Z,96.70
2018-04-08T06:40:03.669Z,96.70
2018-04-08T06:43:05.021Z,96.80
2018-04-08T06:46:06.306Z,96.80
2018-04-08T06:49:07.590Z,94.30
2018-04-08T06:52:08.971Z,96.10
2018-04-08T06:55:10.227Z,95.20
2018-04-08T06:58:11.583Z,94.90
2018-04-08T07:01:12.865Z,94.80
2018-04-08T07:04:14.929Z,89.40
2018-04-08T07:07:16.207Z,88.70
2018-04-08T07:10:17.509Z,89.00
2018-04-08T07:13:18.776Z,86.00
2018-04-08T07:16:20.147Z,81.50
2018-04-08T07:19:21.410Z,81.30
2018-04-08T07:22:22.655Z,79.90
2018-04-08T07:25:24.707Z,78.10
2018-04-08T07:28:28.900Z,78.10
2018-04-08T07:31:30.943Z,77.80
2018-04-08T07:34:32.210Z,77.80
2018-04-08T07:37:33.533Z,76.00
2018-04-08T07:40:34.808Z,76.20
2018-04-08T07:43:36.037Z,77.10
2018-04-08T07:46:37.356Z,75.10
2018-04-08T07:49:38.728Z,74.90
2018-04-08T07:52:39.996Z,76.90
2018-04-08T07:55:41.282Z,74.30
2018-04-08T07:58:42.587Z,73.70
2018-04-08T08:01:43.826Z,76.70
2018-04-08T08:04:45.100Z,76.00
2018-04-08T08:07:46.365Z,75.40
2018-04-08T08:10:47.636Z,76.00
2018-04-08T08:13:48.906Z,75.70
2018-04-08T08:16:50.204Z,78.30
2018-04-08T08:19:51.464Z,76.10
2018-04-08T08:22:52.767Z,74.80
2018-04-08T08:25:54.101Z,74.30
2018-04-08T08:28:56.732Z,73.30
2018-04-08T08:31:58.853Z,72.40
2018-04-08T08:35:00.900Z,73.40
2018-04-08T08:38:09.511Z,73.40
2018-04-08T08:41:10.823Z,75.30
2018-04-08T08:44:12.121Z,74.80
2018-04-08T08:47:14.154Z,70.50
2018-04-08T08:50:15.424Z,70.40
2018-04-08T08:53:16.707Z,68.80
2018-04-08T08:56:17.970Z,70.50
2018-04-08T08:59:19.320Z,69.10
2018-04-08T09:02:20.603Z,70.60
2018-04-08T09:05:21.909Z,71.90
2018-04-08T09:08:23.195Z,68.70
2018-04-08T09:11:24.484Z,70.50
2018-04-08T09:14:25.751Z,65.30
2018-04-08T09:17:27.886Z,65.70
2018-04-08T09:24:12.450Z,69.30
2018-04-08T09:27:13.777Z,66.00
2018-04-08T09:30:15.070Z,67.90
2018-04-08T09:33:16.361Z,68.60
2018-04-08T09:36:17.694Z,66.30
2018-04-08T09:39:18.928Z,64.80
2018-04-08T09:42:20.282Z,64.70
2018-04-08T09:45:21.574Z,70.50
2018-04-08T09:48:22.851Z,69.50
2018-04-08T09:51:24.119Z,65.70
2018-04-08T09:54:25.393Z,62.00
2018-04-08T09:57:27.593Z,64.40
2018-04-08T10:04:08.736Z,66.40
2018-04-08T10:07:10.010Z,66.40
2018-04-08T10:10:11.288Z,72.90
2018-04-08T10:13:12.646Z,69.90
2018-04-08T10:16:13.936Z,66.90
2018-04-08T10:19:15.228Z,62.00
2018-04-08T10:22:16.596Z,62.00
2018-04-08T10:25:17.885Z,66.50
2018-04-08T10:28:19.154Z,62.20
2018-04-08T10:31:20.430Z,60.90
2018-04-08T10:34:21.683Z,61.90
2018-04-08T10:37:22.950Z,62.20
2018-04-08T10:40:24.223Z,62.00
2018-04-08T10:43:25.490Z,60.60
2018-04-08T10:46:27.589Z,62.30
2018-04-08T10:49:28.930Z,65.20
2018-04-08T10:52:30.298Z,65.10
2018-04-08T10:55:33.138Z,58.50
2018-04-08T10:58:34.375Z,62.60
2018-04-08T11:01:35.988Z,62.90
2018-04-08T11:04:39.461Z,66.00
2018-04-08T11:07:40.715Z,66.00
2018-04-08T11:10:42.078Z,66.10
2018-04-08T11:13:43.320Z,60.50
2018-04-08T11:16:44.591Z,56.80
2018-04-08T11:19:45.865Z,58.70
2018-04-08T11:22:47.121Z,56.80
2018-04-08T11:25:49.133Z,58.90
2018-04-08T11:28:50.371Z,58.80
2018-04-08T11:31:51.652Z,55.90
2018-04-08T11:34:52.898Z,57.80
2018-04-08T11:37:54.163Z,58.80
2018-04-08T11:40:55.408Z,55.60
2018-04-08T11:43:57.392Z,55.50
2018-04-08T11:46:58.727Z,55.40
2018-04-08T11:49:59.996Z,60.60
2018-04-08T11:53:01.224Z,53.70
2018-04-08T11:56:02.483Z,52.10
2018-04-08T11:59:03.765Z,52.50
2018-04-08T12:02:05.068Z,53.10
2018-04-08T12:05:06.293Z,53.60
2018-04-08T12:08:07.544Z,55.00
2018-04-08T12:11:09.529Z,55.90
2018-04-08T12:14:11.515Z,54.80
2018-04-08T12:17:13.490Z,55.30
2018-04-08T12:20:14.773Z,55.30
2018-04-08T12:23:16.031Z,53.00
2018-04-08T12:26:18.151Z,55.30
2018-04-08T12:29:19.399Z,58.00
2018-04-08T12:32:20.666Z,58.60
2018-04-08T12:35:21.906Z,56.40
2018-04-08T12:38:23.902Z,60.90
2018-04-08T12:41:25.897Z,55.10
2018-04-08T12:44:27.892Z,57.50
2018-04-08T12:47:29.890Z,56.00
2018-04-08T12:50:31.901Z,57.10
2018-04-08T12:53:33.169Z,57.10
2018-04-08T12:56:35.174Z,55.30
2018-04-08T12:59:36.435Z,55.30
2018-04-08T13:02:38.446Z,53.70
2018-04-08T13:05:47.326Z,54.60
2018-04-08T13:08:48.574Z,54.60
2018-04-08T13:11:50.567Z,54.40
2018-04-08T13:14:52.527Z,56.00
2018-04-08T13:17:53.786Z,55.90
2018-04-08T13:20:55.052Z,53.50
2018-04-08T13:23:56.938Z,56.10
2018-04-08T13:26:58.183Z,55.00
2018-04-08T13:29:59.431Z,51.80
2018-04-08T13:33:00.686Z,55.00
2018-04-08T13:36:01.908Z,53.30
2018-04-08T13:39:03.184Z,55.30
2018-04-08T13:42:04.426Z,53.80
2018-04-08T13:45:05.675Z,49.80
2018-04-08T13:48:06.929Z,52.70
2018-04-08T13:51:08.915Z,55.10
2018-04-08T13:54:10.161Z,54.60
2018-04-08T13:57:11.423Z,54.50
2018-04-08T14:00:12.662Z,53.90
2018-04-08T14:03:14.685Z,55.60
2018-04-08T14:06:15.912Z,55.60
2018-04-08T14:09:17.185Z,56.20
2018-04-08T14:12:18.429Z,53.00
2018-04-08T14:15:19.695Z,54.30
2018-04-08T14:18:20.939Z,51.90
2018-04-08T14:21:22.945Z,50.70
2018-04-08T14:24:24.935Z,50.90
2018-04-08T14:27:27.896Z,52.30
2018-04-08T14:30:29.132Z,52.00
2018-04-08T14:33:30.402Z,49.50
2018-04-08T14:36:33.142Z,49.10
2018-04-08T14:39:35.113Z,51.10
2018-04-08T14:42:36.366Z,51.20
2018-04-08T14:45:37.639Z,46.40
2018-04-08T14:48:38.910Z,46.40
2018-04-08T14:51:40.175Z,52.00
2018-04-08T14:54:41.402Z,46.80
2018-04-08T14:57:42.679Z,52.20
2018-04-08T15:00:43.958Z,50.50
2018-04-08T15:03:45.208Z,51.10
2018-04-08T15:06:46.467Z,49.70
2018-04-08T15:09:47.727Z,51.30
2018-04-08T15:12:48.964Z,49.20
2018-04-08T15:15:50.983Z,50.70
2018-04-08T15:18:52.983Z,49.30
2018-04-08T15:21:55.021Z,49.80
2018-04-08T15:24:57.097Z,49.70
2018-04-08T15:27:58.394Z,47.00
2018-04-08T15:30:59.634Z,47.30
2018-04-08T15:34:01.963Z,45.60
2018-04-08T15:37:03.410Z,45.60
2018-04-08T15:40:05.201Z,48.40
2018-04-08T15:43:07.710Z,46.00
2018-04-08T15:46:10.035Z,47.90
2018-04-08T15:49:11.643Z,47.90
2018-04-08T15:52:14.167Z,48.30
2018-04-08T15:55:15.400Z,48.00
2018-04-08T15:58:17.373Z,50.80
2018-04-08T16:01:18.706Z,50.60
2018-04-08T16:04:19.936Z,53.80
2018-04-08T16:07:21.980Z,52.90
2018-04-08T16:10:23.210Z,53.00
2018-04-08T16:13:24.689Z,53.20
2018-04-08T16:16:26.720Z,54.00
2018-04-08T16:19:28.486Z,52.50
2018-04-08T16:22:31.497Z,52.50
2018-04-08T16:25:33.103Z,52.50
2018-04-08T16:28:34.895Z,52.70
2018-04-08T16:31:36.173Z,54.40
2018-04-08T16:34:39.710Z,55.90
2018-04-08T16:37:41.005Z,55.90
2018-04-08T16:40:42.852Z,57.00
2018-04-08T16:43:44.982Z,55.40
2018-04-08T16:46:46.534Z,55.40
2018-04-08T16:49:48.546Z,58.20
2018-04-08T16:52:57.728Z,61.60
2018-04-08T16:55:59.119Z,61.50
2018-04-08T16:59:03.692Z,65.10
2018-04-08T17:02:05.775Z,65.70
2018-04-08T17:05:07.560Z,66.30
2018-04-08T17:08:09.274Z,64.70
2018-04-08T17:11:10.907Z,64.50
2018-04-08T17:14:13.379Z,66.20
2018-04-08T17:17:15.959Z,66.80
2018-04-08T17:20:17.777Z,66.80
2018-04-08T17:23:19.862Z,68.20
2018-04-08T17:26:21.154Z,67.80
2018-04-08T17:29:22.499Z,69.30
2018-04-08T17:32:23.810Z,70.80
2018-04-08T17:35:25.069Z,70.70
2018-04-08T17:38:27.079Z,72.00
2018-04-08T17:41:28.861Z,71.50
2018-04-08T17:44:30.123Z,72.30
2018-04-08T17:47:32.112Z,74.00
2018-04-08T17:50:35.205Z,73.40
2018-04-08T17:53:36.698Z,73.40
2018-04-08T17:56:38.050Z,74.50
2018-04-08T17:59:40.219Z,75.20
2018-04-08T18:02:42.180Z,75.20
2018-04-08T18:05:44.502Z,76.40
2018-04-08T18:08:45.891Z,76.40
2018-04-08T18:11:47.592Z,76.70
2018-04-08T18:14:49.321Z,76.80
2018-04-08T18:17:51.847Z,77.00
2018-04-08T18:20:53.632Z,77.00
2018-04-08T18:23:54.960Z,77.40
2018-04-08T18:26:57.527Z,77.50
2018-04-08T18:29:59.246Z,77.40
2018-04-08T18:33:00.592Z,77.70
2018-04-08T18:36:02.953Z,77.40
2018-04-08T18:39:05.546Z,77.40
2018-04-08T18:42:06.837Z,77.50
2018-04-08T18:45:08.649Z,77.50
2018-04-08T18:48:09.952Z,78.80
2018-04-08T18:51:11.676Z,78.40
2018-04-08T18:54:13.007Z,78.20
2018-04-08T18:57:14.815Z,78.10
2018-04-08T19:00:18.551Z,78.30
2018-04-08T19:03:21.052Z,78.70
2018-04-08T19:06:22.644Z,78.20
2018-04-08T19:09:24.008Z,78.20
2018-04-08T19:12:25.670Z,78.40
2018-04-08T19:15:28.347Z,78.80
2018-04-08T19:18:29.652Z,78.60
2018-04-08T19:21:31.116Z,78.30
2018-04-08T19:24:33.157Z,79.10
2018-04-08T19:27:35.395Z,79.00
2018-04-08T19:30:38.495Z,79.90
2018-04-08T19:33:39.820Z,79.80
2018-04-08T19:36:41.134Z,80.20
2018-04-08T19:39:42.388Z,80.50
2018-04-08T19:42:43.648Z,80.90
2018-04-08T19:45:45.735Z,80.80
2018-04-08T19:48:48.178Z,81.50
2018-04-08T19:51:50.026Z,81.50
2018-04-08T19:54:51.828Z,81.40
2018-04-08T19:57:53.372Z,81.90
2018-04-08T20:00:54.763Z,81.70
2018-04-08T20:03:56.766Z,81.30
2018-04-08T20:06:58.170Z,81.40
2018-04-08T20:09:59.522Z,81.60
2018-04-08T20:13:01.555Z,81.70
2018-04-08T20:16:02.894Z,81.90
2018-04-08T20:19:04.667Z,81.90
2018-04-08T20:22:05.986Z,82.30
2018-04-08T20:25:07.718Z,82.20
2018-04-08T20:28:09.455Z,82.40
2018-04-08T20:31:11.488Z,81.00
2018-04-08T20:34:13.608Z,82.30
2018-04-08T20:37:15.392Z,82.30
2018-04-08T20:40:17.012Z,82.40
2018-04-08T20:43:18.411Z,82.80
2018-04-08T20:46:19.655Z,82.40
2018-04-08T20:49:20.916Z,83.10
2018-04-08T20:52:22.190Z,84.00
2018-04-08T20:55:23.467Z,85.00
2018-04-08T20:58:24.728Z,85.20
2018-04-08T21:01:27.250Z,84.00
2018-04-08T21:04:28.606Z,84.00
2018-04-08T21:07:30.031Z,83.50
2018-04-08T21:10:31.350Z,83.60
2018-04-08T21:13:32.614Z,82.90
2018-04-08T21:16:34.613Z,82.80
2018-04-08T21:19:35.875Z,82.80
2018-04-08T21:22:37.145Z,82.70
2018-04-08T21:25:38.473Z,83.20
2018-04-08T21:28:39.711Z,83.40
2018-04-08T21:31:40.993Z,83.70
2018-04-08T21:34:42.275Z,83.70
2018-04-08T21:37:44.432Z,82.60
2018-04-08T21:40:46.408Z,83.40
2018-04-08T21:43:47.782Z,83.40
2018-04-08T21:46:49.118Z,83.60
2018-04-08T21:49:50.413Z,84.00
2018-04-08T21:52:52.227Z,83.40
2018-04-08T21:55:53.722Z,83.10
2018-04-08T21:58:55.745Z,83.40
2018-04-08T22:01:58.010Z,83.20
2018-04-08T22:04:59.298Z,84.10
2018-04-08T22:08:00.571Z,84.20
2018-04-08T22:11:01.823Z,84.20
2018-04-08T22:14:03.125Z,84.10
2018-04-08T22:17:04.331Z,83.90
2018-04-08T22:20:06.339Z,84.80
2018-04-08T22:23:07.575Z,84.80
2018-04-08T22:26:08.854Z,84.90
2018-04-08T22:29:10.848Z,84.30
2018-04-08T22:32:12.142Z,84.40
2018-04-08T22:35:13.379Z,84.70
2018-04-08T22:38:14.643Z,84.20
2018-04-08T22:41:15.894Z,84.20
2018-04-08T22:44:17.879Z,84.30
2018-04-08T22:47:19.840Z,84.80
2018-04-08T22:50:21.114Z,84.90
2018-04-08T22:53:22.360Z,84.40
2018-04-08T22:56:23.650Z,85.70
2018-04-08T22:59:24.895Z,86.00
2018-04-08T23:02:27.964Z,86.00
2018-04-08T23:05:29.227Z,86.00
2018-04-08T23:08:30.474Z,86.70
2018-04-08T23:11:32.566Z,86.20
2018-04-08T23:14:33.807Z,86.10
2018-04-08T23:17:35.206Z,85.80
2018-04-08T23:20:36.500Z,85.90
2018-04-08T23:23:38.532Z,86.20
2018-04-08T23:26:39.784Z,85.80
2018-04-08T23:29:41.771Z,85.90
2018-04-08T23:32:43.036Z,85.90
2018-04-08T23:35:59.251Z,85.80
2018-04-08T23:39:01.263Z,87.30
2018-04-08T23:42:02.554Z,87.30
2018-04-08T23:45:03.853Z,87.10
2018-04-08T23:48:05.847Z,87.30
2018-04-08T23:51:07.839Z,87.80
2018-04-08T23:54:09.813Z,87.90
2018-04-08T23:57:11.051Z,87.80
